This is the latest recevied weather packets stored in our database for station/object KB0OLA. If no packets are shown the sender has not sent any weather packets the latest 10 day(s).
| Time | Temp. | Humidity | Pressure | Rain* | Wind** | Luminosity | Snow |
|---|---|---|---|---|---|---|---|
| 1778004937 | 12.78° C | 50% | 1010.6 hPa | 0 mm | - | - | - |
| 1778003717 | 12.22° C | 51% | 1010.6 hPa | 0 mm | - | - | - |
| 1778002537 | 12.78° C | 49% | 1010.7 hPa | 0 mm | - | - | - |
| 1777997716 | 12.22° C | 50% | 1010.2 hPa | 0 mm | - | - | - |
| 1777997117 | 12.22° C | 50% | 1010.1 hPa | 0 mm | - | - | - |
| 1777994716 | 12.22° C | 51% | 1010 hPa | 0 mm | - | - | - |
| 1777992318 | 12.78° C | 50% | 1009.6 hPa | 0 mm | - | - | - |
| 1777987518 | 11.67° C | 61% | 1009 hPa | 0 mm | - | - | - |
| 1777986318 | 11.67° C | 60% | 1008.8 hPa | 0 mm | - | - | - |
| 1777985118 | 11.67° C | 60% | 1008.6 hPa | 0 mm | - | - | - |
| 1777983318 | 11.11° C | 60% | 1008.5 hPa | 0 mm | - | - | - |
| 1777979118 | 11.67° C | 58% | 1008.2 hPa | 0 mm | - | - | - |
| 1777976117 | 12.78° C | 51% | 1008.3 hPa | 0 mm | - | - | - |
| 1777973117 | 13.33° C | 51% | 1008.6 hPa | 0 mm | - | - | - |
| 1777971937 | 13.33° C | 51% | 1008.6 hPa | 0 mm | - | - | - |
| 1777971317 | 13.33° C | 52% | 1008.6 hPa | 0 mm | - | - | - |
| 1777970117 | 13.33° C | 52% | 1008.7 hPa | 0 mm | - | - | - |
| 1777968338 | 13.33° C | 52% | 1009 hPa | 0 mm | - | - | - |
| 1777963517 | 13.33° C | 55% | 1009.6 hPa | 0 mm | - | - | - |
| 1777962917 | 13.33° C | 55% | 1009.5 hPa | 0 mm | - | - | - |
| 1777953917 | 16.11° C | 40% | 1007.5 hPa | 0 mm | - | - | - |
| 1777952717 | 16.11° C | 40% | 1007.2 hPa | 0 mm | - | - | - |
| 1777949717 | 17.22° C | 36% | 1006.2 hPa | 0 mm | - | - | - |
| 1777945516 | 20° C | 29% | 1005.9 hPa | 0 mm | - | - | - |
| 1777944916 | 20° C | 28% | 1005.9 hPa | 0 mm | - | - | - |
* Rain latest hour (hover to see other rain measurements)
** Current wind speed in m/s (hover to see current wind gust speed)